Neptune Horizon — 9HA3929 — position and weather

sailwx.info

Track history (hours):
 
Tides and Currents Weather Stations Pressure Air Temp Water Temp Dewpoint Dewpoint Depression Visibility Wind Speed Wind Dir Waves Ship Positions

Neptune Horizon

Last reported at 2017-Nov-17 20:28 UTC. Time now 2017-Nov-17 20:51 UTC.
Position N 37°52' E 023°33'.

Length 168 m; draft 8.2 m.

Type: Ship. MMSI: 256488000.

Date/timePositionNaut miles runAvg speedWind from/ knotsBaromVisibWave heightAir tempDewpointWater temp
2017-Nov-17 20:28N 37°52' E 023°33'0 0.0
2017-Nov-17 19:58N 37°52' E 023°33'0 0.0
2017-Nov-17 19:28N 37°52' E 023°33'0 0.0
2017-Nov-17 18:58N 37°52' E 023°33'0 0.0
2017-Nov-17 18:28N 37°52' E 023°33'0 0.3
2017-Nov-17 18:00N 37°53' E 023°33'510.7
2017-Nov-17 17:31N 37°50' E 023°39'714.5
2017-Nov-17 17:01N 37°43' E 023°43'714.1
2017-Nov-17 16:30N 37°37' E 023°45'1414.2
2017-Nov-17 15:32N 37°23' E 023°45'014.4
2017-Nov-17 15:31N 37°22' E 023°45'714.1
2017-Nov-17 15:00N 37°16' E 023°41'36214.2
2017-Nov-16 13:31N 37°47' E 016°06'118.8
2017-Nov-16 13:28N 37°47' E 016°05'918.5
2017-Nov-16 13:00N 37°50' E 015°55'918.6
2017-Nov-16 12:30N 37°52' E 015°44'917.7
2017-Nov-16 12:01N 37°57' E 015°34'1019.3
2017-Nov-16 11:30N 38°07' E 015°35'917.6
2017-Nov-16 11:01N 38°15' E 015°38'713.9
2017-Nov-16 10:30N 38°22' E 015°37'1019.3
2017-Nov-16 10:01N 38°29' E 015°28'1019.7
2017-Nov-16 09:31N 38°36' E 015°20'1019.7
2017-Nov-16 09:00N 38°43' E 015°11'1019.7
2017-Nov-16 08:30N 38°51' E 015°02'1019.6
2017-Nov-16 08:00N 38°58' E 014°54'1719.5
2017-Nov-16 07:07N 39°11' E 014°40'219.4
2017-Nov-16 07:01N 39°12' E 014°38'  
2017-Nov-09 21:45N 37°32' W 009°23'416.5
2017-Nov-09 21:30N 37°36' W 009°21'816.6
2017-Nov-09 21:00N 37°44' W 009°18'816.8
2017-Nov-09 20:30N 37°52' W 009°15'816.5
2017-Nov-09 20:00N 37°60' W 009°13'816.6
2017-Nov-09 19:30N 38°08' W 009°10'816.5
2017-Nov-09 19:00N 38°16' W 009°06'816.4
2017-Nov-09 18:31N 38°23' W 009°02'612.0
2017-Nov-09 18:00N 38°28' W 008°57'5 9.5
2017-Nov-09 17:30N 38°31' W 008°53'0 0.5
2017-Nov-09 16:41N 38°31' W 008°52'0 0.0
2017-Nov-09 16:30N 38°31' W 008°52'0 0.0
2017-Nov-09 16:00N 38°31' W 008°52'0 0.0
2017-Nov-09 15:30N 38°31' W 008°52'0 0.0
2017-Nov-09 15:00N 38°31' W 008°52'0 0.0
2017-Nov-09 14:30N 38°31' W 008°52'0 0.0
2017-Nov-09 13:59N 38°31' W 008°52'0 0.0
2017-Nov-09 13:30N 38°31' W 008°52'0 0.0
2017-Nov-09 13:00N 38°31' W 008°52'0 0.1
2017-Nov-09 12:30N 38°31' W 008°52'1 2.2
2017-Nov-09 12:00N 38°31' W 008°53'4 7.6
2017-Nov-09 11:30N 38°28' W 008°57'4 7.7
2017-Nov-09 11:00N 38°26' W 009°00'611.2
2017-Nov-09 10:30N 38°22' W 009°06'815.1
2017-Nov-09 10:00N 38°22' W 009°16'815.2
2017-Nov-09 09:30N 38°24' W 009°25'815.1
2017-Nov-09 09:00N 38°26' W 009°34'714.9
2017-Nov-09 08:30N 38°28' W 009°43'815.2
2017-Nov-09 08:01N 38°31' W 009°53'815.4
2017-Nov-09 07:31N 38°33' W 010°02'815.4
2017-Nov-09 07:00N 38°40' W 010°06'815.7
2017-Nov-09 06:30N 38°48' W 010°07'815.5
2017-Nov-09 06:01N 38°55' W 010°07'815.8
2017-Nov-09 05:30N 39°03' W 010°07'815.3
2017-Nov-09 05:00N 39°11' W 010°07'815.4
2017-Nov-09 04:30N 39°18' W 010°07'  
Track history (hours):
 
Tides and Currents Weather Stations Pressure Air Temp Water Temp Dewpoint Dewpoint Depression Visibility Wind Speed Wind Dir Waves Ship Positions

Neptune Horizon

Last reported at 2017-Nov-17 20:28 UTC. Time now 2017-Nov-17 20:51 UTC.
Position N 37°52' E 023°33'.

Length 168 m; draft 8.2 m.

Type: Ship. MMSI: 256488000.

Date/timePositionNaut miles runAvg speedWind from/ knotsBaromVisibWave heightAir tempDewpointWater temp
2017-Nov-17 20:28N 37°52' E 023°33'0 0.0
2017-Nov-17 19:58N 37°52' E 023°33'0 0.0
2017-Nov-17 19:28N 37°52' E 023°33'0 0.0
2017-Nov-17 18:58N 37°52' E 023°33'0 0.0
2017-Nov-17 18:28N 37°52' E 023°33'0 0.3
2017-Nov-17 18:00N 37°53' E 023°33'510.7
2017-Nov-17 17:31N 37°50' E 023°39'714.5
2017-Nov-17 17:01N 37°43' E 023°43'714.1
2017-Nov-17 16:30N 37°37' E 023°45'1414.2
2017-Nov-17 15:32N 37°23' E 023°45'014.4
2017-Nov-17 15:31N 37°22' E 023°45'714.1
2017-Nov-17 15:00N 37°16' E 023°41'36214.2
2017-Nov-16 13:31N 37°47' E 016°06'118.8
2017-Nov-16 13:28N 37°47' E 016°05'918.5
2017-Nov-16 13:00N 37°50' E 015°55'918.6
2017-Nov-16 12:30N 37°52' E 015°44'917.7
2017-Nov-16 12:01N 37°57' E 015°34'1019.3
2017-Nov-16 11:30N 38°07' E 015°35'917.6
2017-Nov-16 11:01N 38°15' E 015°38'713.9
2017-Nov-16 10:30N 38°22' E 015°37'1019.3
2017-Nov-16 10:01N 38°29' E 015°28'1019.7
2017-Nov-16 09:31N 38°36' E 015°20'1019.7
2017-Nov-16 09:00N 38°43' E 015°11'1019.7
2017-Nov-16 08:30N 38°51' E 015°02'1019.6
2017-Nov-16 08:00N 38°58' E 014°54'1719.5
2017-Nov-16 07:07N 39°11' E 014°40'219.4
2017-Nov-16 07:01N 39°12' E 014°38'  
2017-Nov-09 21:45N 37°32' W 009°23'416.5
2017-Nov-09 21:30N 37°36' W 009°21'816.6
2017-Nov-09 21:00N 37°44' W 009°18'816.8
2017-Nov-09 20:30N 37°52' W 009°15'816.5
2017-Nov-09 20:00N 37°60' W 009°13'816.6
2017-Nov-09 19:30N 38°08' W 009°10'816.5
2017-Nov-09 19:00N 38°16' W 009°06'816.4
2017-Nov-09 18:31N 38°23' W 009°02'612.0
2017-Nov-09 18:00N 38°28' W 008°57'5 9.5
2017-Nov-09 17:30N 38°31' W 008°53'0 0.5
2017-Nov-09 16:41N 38°31' W 008°52'0 0.0
2017-Nov-09 16:30N 38°31' W 008°52'0 0.0
2017-Nov-09 16:00N 38°31' W 008°52'0 0.0
2017-Nov-09 15:30N 38°31' W 008°52'0 0.0
2017-Nov-09 15:00N 38°31' W 008°52'0 0.0
2017-Nov-09 14:30N 38°31' W 008°52'0 0.0
2017-Nov-09 13:59N 38°31' W 008°52'0 0.0
2017-Nov-09 13:30N 38°31' W 008°52'0 0.0
2017-Nov-09 13:00N 38°31' W 008°52'0 0.1
2017-Nov-09 12:30N 38°31' W 008°52'1 2.2
2017-Nov-09 12:00N 38°31' W 008°53'4 7.6
2017-Nov-09 11:30N 38°28' W 008°57'4 7.7
2017-Nov-09 11:00N 38°26' W 009°00'611.2
2017-Nov-09 10:30N 38°22' W 009°06'815.1
2017-Nov-09 10:00N 38°22' W 009°16'815.2
2017-Nov-09 09:30N 38°24' W 009°25'815.1
2017-Nov-09 09:00N 38°26' W 009°34'714.9
2017-Nov-09 08:30N 38°28' W 009°43'815.2
2017-Nov-09 08:01N 38°31' W 009°53'815.4
2017-Nov-09 07:31N 38°33' W 010°02'815.4
2017-Nov-09 07:00N 38°40' W 010°06'815.7
2017-Nov-09 06:30N 38°48' W 010°07'815.5
2017-Nov-09 06:01N 38°55' W 010°07'815.8
2017-Nov-09 05:30N 39°03' W 010°07'815.3
2017-Nov-09 05:00N 39°11' W 010°07'815.4
2017-Nov-09 04:30N 39°18' W 010°07'  

Dump ship's entire track history